Weather at Aeródromo de Ordis

Public forecast

Using degrees Celsius for public forecast. Weather courtesy of forecast.io.

Closest aviation weather report (METAR) to Aeródromo de Ordis

Closest report is Girona Airport, 20.7 nm (38.3 km) SSW. Retrieved 2020/09/19 15:30 UTC (13 minutes ago):

LEGE 191530Z 19009KT 170V230 9999 FEW035 24/18 Q1011

Closest aviation forecast (TAF) to Aeródromo de Ordis

Closest forecast is Girona Airport, 20.7 nm (38.3 km) SSW. Retrieved 2020/09/19 12:27 UTC (3 hours ago):

TAF LEGE 191100Z 1912/2012 22012KT 9999 FEW020 BKN070 TX28/1913Z TN15/2006Z TEMPO 1912/1915 20005KT PROB40 TEMPO 1912/1918 TSRA FEW030CB BECMG 1918/1920 20005KT